Time;durP1;ratioP1;P1;durP2;ratioP2;P2;SDS_P1;SDS_P2;PMS_P1;PMS_P2;Temp;Humidity;BMP_temperature;BMP_pressure;BME280_temperature;BME280_humidity;BME280_pressure;Samples;Min_cycle;Max_cycle;Signal;HPM_P1;HPM_P2
2022/05/06 00:00:06;;;;;;;8.82;4.90;;;;;;;10.60;100.00;95572.53;5075122;28;20109;-70
2022/05/06 00:02:33;;;;;;;7.47;4.53;;;;;;;10.58;100.00;95577.16;5081901;28;20135;-70
2022/05/06 00:05:00;;;;;;;6.82;5.20;;;;;;;10.59;100.00;95578.75;5061812;28;20119;-70
2022/05/06 00:07:28;;;;;;;6.85;4.95;;;;;;;10.56;100.00;95579.19;5060496;28;20071;-70
2022/05/06 00:09:55;;;;;;;10.52;4.65;;;;;;;10.50;100.00;95586.84;5074807;28;20040;-71
2022/05/06 00:12:23;;;;;;;11.50;4.65;;;;;;;10.54;100.00;95586.41;5064418;28;20131;-70
2022/05/06 00:14:51;;;;;;;7.80;5.45;;;;;;;10.52;100.00;95592.63;5063021;28;20047;-69
2022/05/06 00:17:24;;;;;;;6.78;5.15;;;;;;;10.50;100.00;95591.25;5068924;28;20064;-69
2022/05/06 00:19:51;;;;;;;6.78;4.75;;;;;;;10.46;100.00;95585.66;5082831;28;20048;-69
2022/05/06 00:22:19;;;;;;;7.95;5.10;;;;;;;10.42;100.00;95594.88;5056204;28;20123;-70
2022/05/06 00:24:46;;;;;;;8.15;5.20;;;;;;;10.44;100.00;95600.72;5065605;28;20040;-69
2022/05/06 00:27:13;;;;;;;7.30;4.80;;;;;;;10.37;100.00;95605.16;5059932;28;20048;-69
2022/05/06 00:29:40;;;;;;;8.75;5.43;;;;;;;10.27;100.00;95612.59;5073196;28;20483;-69
2022/05/06 00:32:07;;;;;;;7.28;4.75;;;;;;;10.25;100.00;95604.19;5063636;28;20041;-70
2022/05/06 00:34:34;;;;;;;8.50;5.20;;;;;;;10.23;100.00;95607.00;5043354;28;20441;-69
2022/05/06 00:37:00;;;;;;;8.32;5.28;;;;;;;10.17;100.00;95596.63;5066198;28;20677;-70
2022/05/06 00:39:27;;;;;;;8.45;5.15;;;;;;;10.22;100.00;95609.81;5060645;28;20036;-69
2022/05/06 00:41:54;;;;;;;6.90;5.07;;;;;;;10.23;100.00;95611.44;5074692;28;20055;-70
2022/05/06 00:44:22;;;;;;;8.50;5.25;;;;;;;10.13;100.00;95597.03;5072598;28;20036;-70
2022/05/06 00:46:52;;;;;;;7.72;5.50;;;;;;;10.17;100.00;95609.63;5094904;28;20139;-70
2022/05/06 00:49:22;;;;;;;8.35;5.75;;;;;;;10.11;100.00;95614.66;5069049;28;20827;-70
2022/05/06 00:51:51;;;;;;;6.38;4.95;;;;;;;10.05;100.00;95599.09;5070453;28;20064;-69
2022/05/06 00:54:22;;;;;;;8.70;5.25;;;;;;;9.96;100.00;95603.75;5061747;28;20076;-69
2022/05/06 00:56:50;;;;;;;7.43;5.38;;;;;;;9.85;100.00;95594.78;5078261;28;20876;-69
2022/05/06 00:59:17;;;;;;;7.15;5.25;;;;;;;9.88;100.00;95609.19;5067528;28;20795;-69
2022/05/06 01:01:44;;;;;;;7.88;5.43;;;;;;;9.85;100.00;95604.38;5060015;28;20127;-70
2022/05/06 01:04:17;;;;;;;8.63;5.53;;;;;;;9.83;100.00;95601.19;5039005;28;20162;-70
2022/05/06 01:06:46;;;;;;;7.50;5.57;;;;;;;9.84;100.00;95618.41;5059365;28;20132;-70
2022/05/06 01:09:16;;;;;;;12.05;6.90;;;;;;;9.80;100.00;95612.03;5082512;28;20131;-69
2022/05/06 01:11:46;;;;;;;7.25;5.80;;;;;;;9.76;100.00;95609.03;5070276;28;20044;-69
2022/05/06 01:14:33;;;;;;;9.38;6.57;;;;;;;9.77;100.00;95606.22;5045497;28;20041;-69
2022/05/06 01:17:13;;;;;;;9.75;5.60;;;;;;;9.71;100.00;95599.25;5046538;28;20049;-70
2022/05/06 01:19:40;;;;;;;9.18;6.70;;;;;;;9.72;100.00;95602.63;5086701;28;20040;-69
2022/05/06 01:22:07;;;;;;;10.07;6.18;;;;;;;9.70;100.00;95602.03;5059127;28;20045;-69
2022/05/06 01:24:34;;;;;;;7.47;5.43;;;;;;;9.70;100.00;95608.03;5064995;28;20053;-69
2022/05/06 01:27:06;;;;;;;9.82;5.88;;;;;;;9.68;100.00;95610.06;5075068;28;20044;-70
2022/05/06 01:29:35;;;;;;;9.32;5.82;;;;;;;9.70;100.00;95609.84;5071046;28;20603;-70
2022/05/06 01:32:03;;;;;;;7.70;5.63;;;;;;;9.68;100.00;95604.84;5067951;28;20040;-70
2022/05/06 01:34:32;;;;;;;8.50;5.57;;;;;;;9.67;100.00;95603.28;5060188;28;20057;-70
2022/05/06 01:37:04;;;;;;;8.25;5.70;;;;;;;9.55;100.00;95589.31;5047582;28;20126;-69
2022/05/06 01:39:36;;;;;;;7.13;5.57;;;;;;;9.58;100.00;95607.09;5047593;28;20037;-69
2022/05/06 01:42:09;;;;;;;9.05;6.13;;;;;;;9.55;100.00;95604.91;5052014;28;20055;-69
2022/05/06 01:44:45;;;;;;;8.85;5.57;;;;;;;9.57;100.00;95610.69;5060924;28;20139;-69
2022/05/06 01:47:19;;;;;;;10.63;6.22;;;;;;;9.55;100.00;95604.91;5074470;28;20076;-69
2022/05/06 01:49:49;;;;;;;8.57;6.22;;;;;;;9.49;100.00;95603.09;5068200;28;20056;-69
2022/05/06 01:52:18;;;;;;;8.65;6.38;;;;;;;9.54;100.00;95608.50;5073644;28;20037;-70
2022/05/06 01:54:47;;;;;;;8.48;6.05;;;;;;;9.49;100.00;95610.91;5066045;28;20059;-69
2022/05/06 01:57:15;;;;;;;8.45;5.93;;;;;;;9.44;100.00;95602.94;5052894;28;20781;-69
2022/05/06 01:59:43;;;;;;;10.05;6.88;;;;;;;9.39;100.00;95590.53;5080560;28;20433;-69
2022/05/06 02:02:14;;;;;;;9.35;7.47;;;;;;;9.43;100.00;95601.34;5059874;28;20048;-69
2022/05/06 02:07:31;;;;;;;10.38;6.47;;;;;;;9.47;100.00;95597.31;5093271;28;20135;-69
2022/05/06 02:09:59;;;;;;;10.32;7.32;;;;;;;9.37;100.00;95588.16;5062753;28;20132;-69
2022/05/06 02:12:29;;;;;;;10.18;6.65;;;;;;;9.43;100.00;95603.94;5064640;28;20134;-70
2022/05/06 02:15:07;;;;;;;11.15;6.63;;;;;;;9.44;100.00;95601.13;5053431;28;20040;-70
2022/05/06 02:17:42;;;;;;;9.88;6.55;;;;;;;9.47;100.00;95597.31;5081147;28;20050;-70
2022/05/06 02:20:28;;;;;;;7.97;5.53;;;;;;;9.46;100.00;95600.94;5080384;28;20051;-70
2022/05/06 02:23:05;;;;;;;9.43;6.30;;;;;;;9.38;100.00;95594.97;5056572;28;20654;-70
2022/05/06 02:25:51;;;;;;;11.13;6.03;;;;;;;9.43;100.00;95601.34;5073136;28;20749;-70
2022/05/06 02:28:27;;;;;;;9.70;7.10;;;;;;;9.42;100.00;95604.94;5083885;28;20068;-70
2022/05/06 02:33:54;;;;;;;10.38;6.90;;;;;;;9.41;100.00;95603.34;5085612;28;20045;-70
2022/05/06 02:36:27;;;;;;;12.93;7.13;;;;;;;9.38;100.00;95594.97;5074779;28;20052;-70
2022/05/06 02:38:55;;;;;;;8.70;6.15;;;;;;;9.35;100.00;95595.34;5066812;28;20052;-70
2022/05/06 02:41:23;;;;;;;11.07;6.38;;;;;;;9.37;100.00;95593.34;5069258;28;20036;-70
2022/05/06 02:43:52;;;;;;;8.38;6.28;;;;;;;9.30;100.00;95592.56;5053910;28;20135;-69
2022/05/06 02:46:21;;;;;;;10.63;6.75;;;;;;;9.24;100.00;95596.00;5073240;28;20045;-70
2022/05/06 02:48:48;;;;;;;11.15;6.80;;;;;;;9.26;100.00;95596.59;5044208;28;20725;-70
2022/05/06 02:51:19;;;;;;;9.10;6.40;;;;;;;9.24;100.00;95598.59;5051724;28;20047;-70
2022/05/06 02:53:46;;;;;;;12.05;6.88;;;;;;;9.22;100.00;95600.59;5076989;28;20056;-70
2022/05/06 02:56:17;;;;;;;12.32;6.63;;;;;;;9.17;100.00;95597.81;5074130;28;20041;-70
2022/05/06 02:58:49;;;;;;;10.68;7.20;;;;;;;9.15;100.00;95603.19;5096577;28;20047;-70
2022/05/06 03:01:17;;;;;;;9.00;6.43;;;;;;;9.12;100.00;95608.00;5074893;28;20064;-70
2022/05/06 03:03:48;;;;;;;10.63;6.25;;;;;;;9.08;100.00;95604.22;5066228;28;20083;-70
2022/05/06 03:06:18;;;;;;;12.18;6.72;;;;;;;9.14;100.00;95608.59;5071287;28;20177;-70
2022/05/06 03:08:47;;;;;;;10.80;6.30;;;;;;;9.04;100.00;95603.00;5063580;28;20044;-70
2022/05/06 03:11:18;;;;;;;9.13;6.28;;;;;;;9.13;100.00;95612.22;5049698;28;20078;-70
2022/05/06 03:13:52;;;;;;;8.48;5.50;;;;;;;9.13;100.00;95612.22;5061686;28;20052;-70
2022/05/06 03:16:22;;;;;;;9.52;6.30;;;;;;;9.10;100.00;95612.59;5077863;28;20495;-71
2022/05/06 03:18:49;;;;;;;8.85;6.10;;;;;;;9.14;100.00;95613.78;5064269;28;20082;-71
2022/05/06 03:21:17;;;;;;;10.32;6.25;;;;;;;9.09;100.00;95606.63;5072052;28;20134;-70
2022/05/06 03:23:50;;;;;;;10.77;6.20;;;;;;;9.09;100.00;95616.19;5055527;28;20045;-70
2022/05/06 03:26:17;;;;;;;9.25;5.78;;;;;;;9.09;100.00;95621.41;5078455;28;20032;-71
2022/05/06 03:28:44;;;;;;;10.48;7.03;;;;;;;9.12;100.00;95636.59;5063112;28;20055;-71
2022/05/06 03:31:13;;;;;;;9.60;6.55;;;;;;;9.08;100.00;95625.00;5084706;28;20110;-71
2022/05/06 03:34:02;;;;;;;14.68;7.72;;;;;;;9.07;100.00;95626.00;5056379;28;20061;-71
2022/05/06 03:36:35;;;;;;;9.27;6.25;;;;;;;9.02;100.00;95620.59;5075764;28;20055;-71
2022/05/06 03:39:06;;;;;;;9.05;6.78;;;;;;;9.03;100.00;95617.00;5065336;28;20051;-70
2022/05/06 03:41:42;;;;;;;8.30;6.13;;;;;;;9.07;100.00;95628.59;5087225;28;20095;-71
2022/05/06 03:44:10;;;;;;;8.45;6.30;;;;;;;9.04;100.00;95618.59;5084772;28;20101;-71
2022/05/06 03:46:42;;;;;;;13.20;6.38;;;;;;;9.14;100.00;95634.59;5047606;28;20076;-71
2022/05/06 03:49:16;;;;;;;9.27;6.82;;;;;;;9.12;100.00;95639.19;5074283;28;20815;-71
2022/05/06 03:51:45;;;;;;;8.05;6.20;;;;;;;9.13;100.00;95640.81;5078121;28;20127;-71
2022/05/06 03:54:16;;;;;;;10.68;6.78;;;;;;;9.14;100.00;95626.78;5053182;28;20060;-71
2022/05/06 03:56:43;;;;;;;10.45;6.65;;;;;;;9.02;100.00;95611.03;5058961;28;20075;-70
2022/05/06 03:59:10;;;;;;;18.50;6.78;;;;;;;9.19;100.00;95647.78;5077419;28;20135;-71
2022/05/06 04:01:42;;;;;;;9.73;6.22;;;;;;;9.19;100.00;95637.38;5061653;28;20040;-71
2022/05/06 04:04:17;;;;;;;11.70;7.10;;;;;;;9.21;100.00;95640.56;5076147;28;20516;-71
2022/05/06 04:06:47;;;;;;;8.00;6.22;;;;;;;9.25;100.00;95639.16;5062515;28;20587;-71
2022/05/06 04:09:15;;;;;;;9.77;6.03;;;;;;;9.20;100.00;95644.19;5067709;28;20048;-71
2022/05/06 04:11:43;;;;;;;8.95;6.15;;;;;;;9.29;100.00;95649.97;5085177;28;20037;-70
2022/05/06 04:14:10;;;;;;;9.25;6.43;;;;;;;9.29;100.00;95637.78;5055748;28;20040;-70
2022/05/06 04:16:41;;;;;;;11.02;6.70;;;;;;;9.37;100.00;95640.16;5044753;28;20067;-71
2022/05/06 04:19:18;;;;;;;12.52;6.57;;;;;;;9.49;100.00;95657.72;5079076;28;20051;-70
2022/05/06 04:24:39;;;;;;;9.57;6.57;;;;;;;9.52;100.00;95641.72;5078790;28;20143;-72
2022/05/06 04:27:06;;;;;;;11.25;6.50;;;;;;;9.64;100.00;95650.50;5076263;28;20074;-72
2022/05/06 04:29:34;;;;;;;9.32;6.40;;;;;;;9.67;100.00;95650.09;5052115;28;20097;-72
2022/05/06 04:32:03;;;;;;;12.45;7.57;;;;;;;9.72;100.00;95652.88;5076262;28;20052;-71
2022/05/06 04:34:31;;;;;;;12.38;7.63;;;;;;;9.84;100.00;95654.84;5045802;28;20048;-71
2022/05/06 04:36:58;;;;;;;9.23;6.70;;;;;;;9.89;100.00;95650.59;5075460;28;20052;-71
2022/05/06 04:39:26;;;;;;;10.07;6.72;;;;;;;10.00;100.00;95649.16;5076626;28;20059;-71
2022/05/06 04:41:54;;;;;;;11.40;6.65;;;;;;;10.08;100.00;95656.75;5060090;28;20268;-73
2022/05/06 04:44:29;;;;;;;11.65;7.18;;;;;;;10.12;100.00;95652.72;5076436;28;20043;-72
2022/05/06 04:46:56;;;;;;;9.93;6.63;;;;;;;10.11;100.00;95640.69;5062299;28;20044;-73
2022/05/06 04:49:24;;;;;;;12.13;8.05;;;;;;;10.27;100.00;95643.84;5049419;28;20122;-72
2022/05/06 04:51:51;;;;;;;10.05;5.95;;;;;;;10.45;100.00;95656.97;5061169;28;20580;-72
2022/05/06 04:54:18;;;;;;;13.02;6.90;;;;;;;10.44;100.00;95655.41;5073040;28;20635;-73
2022/05/06 04:56:49;;;;;;;8.70;6.40;;;;;;;10.57;100.00;95661.50;5073153;28;20036;-72
2022/05/06 04:59:25;;;;;;;10.70;7.53;;;;;;;10.63;100.00;95669.28;5073977;28;20044;-71
2022/05/06 05:01:54;;;;;;;11.73;7.82;;;;;;;10.70;100.00;95664.06;5047782;28;20045;-70
2022/05/06 05:04:27;;;;;;;15.85;7.25;;;;;;;10.79;100.00;95660.19;5081386;28;20056;-70
2022/05/06 05:07:00;;;;;;;8.57;6.15;;;;;;;10.90;100.00;95661.31;5069880;28;20044;-71
2022/05/06 05:09:28;;;;;;;8.93;5.80;;;;;;;10.99;100.00;95664.44;5058206;28;20135;-72
2022/05/06 05:11:55;;;;;;;8.52;5.53;;;;;;;11.08;100.00;95660.56;5074482;28;20036;-72
2022/05/06 05:14:35;;;;;;;8.40;5.15;;;;;;;11.16;100.00;95673.31;5076306;28;20113;-71
2022/05/06 05:17:03;;;;;;;8.85;5.90;;;;;;;11.24;100.00;95674.88;5093986;28;20600;-72
2022/05/06 05:19:30;;;;;;;7.80;6.13;;;;;;;11.29;100.00;95678.44;5067762;28;20047;-72
2022/05/06 05:21:59;;;;;;;10.15;6.18;;;;;;;11.40;100.00;95679.53;5069229;28;20045;-71
2022/05/06 05:24:26;;;;;;;9.73;6.45;;;;;;;11.49;100.00;95677.44;5054700;28;20057;-71
2022/05/06 05:26:54;;;;;;;10.25;6.97;;;;;;;11.60;100.00;95679.34;5092695;28;20048;-71
2022/05/06 05:29:28;;;;;;;;;;;;;;;11.72;100.00;95669.00;5088027;28;20533;-71
2022/05/06 05:31:56;;;;;;;7.55;5.68;;;;;;;11.79;100.00;95671.50;5088020;28;20033;-71
2022/05/06 05:34:24;;;;;;;19.88;7.63;;;;;;;11.89;100.00;95677.03;5062739;28;20135;-71
2022/05/06 05:36:51;;;;;;;9.77;5.68;;;;;;;11.96;100.00;95675.19;5092898;28;20060;-71
2022/05/06 05:39:18;;;;;;;9.32;5.70;;;;;;;11.98;100.00;95662.69;5085298;28;20055;-71
2022/05/06 05:41:48;;;;;;;9.15;6.00;;;;;;;12.05;100.00;95671.25;5074683;28;20040;-71
2022/05/06 05:49:53;;;;;;;8.82;5.55;;;;;;;12.26;100.00;95682.25;5058716;28;20071;-73
2022/05/06 05:52:21;;;;;;;9.88;5.90;;;;;;;12.34;100.00;95678.53;5068197;28;20126;-72
2022/05/06 05:54:48;;;;;;;9.52;5.30;;;;;;;12.35;100.00;95674.91;5075619;28;20141;-72
2022/05/06 05:57:15;;;;;;;11.27;6.45;;;;;;;12.46;100.00;95675.97;5077983;28;20045;-71
2022/05/06 05:59:43;;;;;;;10.50;6.97;;;;;;;12.60;100.00;95661.69;5053644;28;20052;-71
2022/05/06 06:02:11;;;;;;;8.07;5.65;;;;;;;12.82;100.00;95669.84;5047119;28;20048;-71
2022/05/06 06:04:44;;;;;;;9.15;6.22;;;;;;;12.87;100.00;95680.41;5039997;28;20052;-71
2022/05/06 06:07:13;;;;;;;9.60;5.43;;;;;;;12.90;99.94;95671.34;5063110;28;20052;-71
2022/05/06 06:09:45;;;;;;;8.02;5.63;;;;;;;12.90;100.00;95676.56;5074186;28;20045;-72
2022/05/06 06:12:13;;;;;;;8.90;6.03;;;;;;;12.96;100.00;95670.44;5062379;28;20075;-70
2022/05/06 06:14:43;;;;;;;7.55;5.15;;;;;;;13.07;100.00;95682.75;5060147;28;20047;-71
2022/05/06 06:17:17;;;;;;;8.70;5.50;;;;;;;13.17;99.52;95672.50;5057275;28;20141;-72
2022/05/06 06:19:46;;;;;;;8.32;5.30;;;;;;;13.13;98.57;95660.91;5060645;28;20127;-71
2022/05/06 06:22:13;;;;;;;7.35;5.70;;;;;;;13.43;97.46;95675.72;5046736;28;20043;-73
2022/05/06 06:24:52;;;;;;;6.72;5.15;;;;;;;13.53;95.99;95673.34;5057242;28;20044;-71
2022/05/06 06:27:19;;;;;;;8.90;5.80;;;;;;;13.68;95.39;95670.25;5079642;28;20048;-72
2022/05/06 06:29:49;;;;;;;9.10;5.80;;;;;;;13.73;95.60;95659.09;5060216;28;20048;-72
2022/05/06 06:32:17;;;;;;;11.85;5.97;;;;;;;13.96;95.58;95673.97;5067385;28;20137;-72
2022/05/06 06:34:46;;;;;;;12.20;7.15;;;;;;;14.29;95.75;95673.31;5056371;28;20121;-72
2022/05/06 06:37:14;;;;;;;9.00;5.15;;;;;;;14.50;93.46;95673.69;5065922;28;20048;-73
2022/05/06 06:39:47;;;;;;;8.38;5.93;;;;;;;14.65;94.02;95666.13;5072317;28;20047;-70
2022/05/06 06:42:15;;;;;;;7.05;5.00;;;;;;;14.86;92.78;95661.22;5071439;28;20049;-70
2022/05/06 06:45:06;;;;;;;7.97;5.70;;;;;;;15.11;92.18;95655.59;5071526;28;20441;-69
2022/05/06 06:47:59;;;;;;;9.48;5.22;;;;;;;15.30;91.45;95658.75;5064527;28;20084;-73
2022/05/06 06:50:36;;;;;;;8.40;5.28;;;;;;;15.52;89.64;95666.72;5054693;28;20064;-72
2022/05/06 06:53:16;;;;;;;9.35;5.95;;;;;;;15.50;88.78;95666.13;5055254;28;20123;-73
2022/05/06 06:55:43;;;;;;;8.98;5.65;;;;;;;15.65;88.69;95668.19;5058956;28;20143;-73
2022/05/06 06:58:10;;;;;;;8.02;6.03;;;;;;;15.81;89.22;95663.94;5069671;28;20048;-72
2022/05/06 07:00:37;;;;;;;8.18;5.82;;;;;;;15.96;87.36;95660.72;5058144;28;20920;-72
2022/05/06 07:03:05;;;;;;;9.48;5.75;;;;;;;16.17;88.90;95653.88;5066291;28;20445;-71
2022/05/06 07:05:32;;;;;;;12.50;6.25;;;;;;;16.30;86.44;95653.50;5064063;28;20059;-72
2022/05/06 07:13:46;;;;;;;7.18;5.10;;;;;;;16.57;85.51;95666.66;5065300;28;20040;-72
2022/05/06 07:16:13;;;;;;;8.32;5.93;;;;;;;16.74;85.94;95657.88;5064201;28;20051;-72
2022/05/06 07:18:40;;;;;;;6.57;5.10;;;;;;;16.89;85.01;95660.69;5067145;28;20052;-72
2022/05/06 07:21:07;;;;;;;7.25;5.65;;;;;;;17.08;83.96;95658.44;5063232;28;20899;-72
2022/05/06 07:23:34;;;;;;;8.68;5.32;;;;;;;17.20;83.28;95660.94;5061447;28;20044;-71
2022/05/06 07:26:01;;;;;;;8.68;5.20;;;;;;;17.36;84.47;95665.25;5062338;28;20056;-72
2022/05/06 07:28:28;;;;;;;7.40;4.72;;;;;;;17.57;82.97;95653.00;5060137;28;20052;-72
2022/05/06 07:30:55;;;;;;;10.60;5.40;;;;;;;17.67;81.49;95665.44;5063412;28;20537;-70
2022/05/06 07:33:22;;;;;;;6.82;5.45;;;;;;;17.83;81.69;95668.16;5059017;28;20045;-72
2022/05/06 07:35:48;;;;;;;5.80;5.00;;;;;;;18.07;80.43;95674.63;5074296;28;20055;-71
2022/05/06 07:38:15;;;;;;;9.30;5.00;;;;;;;18.15;79.30;95655.69;5061372;28;20052;-71
2022/05/06 07:40:43;;;;;;;6.20;5.05;;;;;;;18.23;77.58;95664.13;5059421;28;20048;-72
2022/05/06 07:43:13;;;;;;;5.45;4.50;;;;;;;18.25;78.24;95656.75;5058328;28;20569;-72
2022/05/06 07:45:40;;;;;;;7.80;6.00;;;;;;;18.42;75.40;95670.53;5056083;28;20040;-71
2022/05/06 07:48:10;;;;;;;9.20;6.55;;;;;;;18.47;73.81;95667.88;5060732;28;20522;-71
2022/05/06 07:50:37;;;;;;;11.30;4.15;;;;;;;18.59;72.05;95664.22;5061588;28;20057;-70
2022/05/06 07:53:06;;;;;;;10.27;5.90;;;;;;;18.84;71.32;95669.56;5061405;28;20053;-69
2022/05/06 07:55:35;;;;;;;7.50;5.88;;;;;;;19.01;69.17;95660.59;5062651;28;20044;-71
2022/05/06 07:58:04;;;;;;;13.05;8.75;;;;;;;19.01;69.05;95671.16;5065345;28;20041;-71
2022/05/06 08:00:35;;;;;;;10.88;7.45;;;;;;;19.05;67.75;95672.22;5057280;28;20127;-71
2022/05/06 08:05:49;;;;;;;5.28;3.80;;;;;;;19.44;66.61;95666.41;5063513;28;20817;-71
2022/05/06 08:08:16;;;;;;;6.43;4.82;;;;;;;19.70;67.79;95666.34;5058917;28;20044;-71
2022/05/06 08:10:44;;;;;;;7.60;4.13;;;;;;;19.60;65.25;95656.59;5061996;28;20631;-70
2022/05/06 08:13:11;;;;;;;5.40;3.85;;;;;;;19.62;64.04;95659.75;5060593;28;20136;-71
2022/05/06 08:15:38;;;;;;;5.18;4.07;;;;;;;19.59;64.81;95661.09;5060480;28;20040;-72
2022/05/06 08:18:05;;;;;;;5.13;4.38;;;;;;;19.75;64.90;95669.00;5062827;28;20050;-71
2022/05/06 08:20:32;;;;;;;8.75;4.85;;;;;;;19.75;63.07;95669.78;5060993;28;20535;-71
2022/05/06 08:23:00;;;;;;;6.22;4.40;;;;;;;19.72;62.58;95664.25;5059011;28;20039;-71
2022/05/06 08:25:27;;;;;;;6.97;4.88;;;;;;;19.89;61.82;95670.03;5055767;28;20048;-71
2022/05/06 08:28:04;;;;;;;8.48;6.00;;;;;;;20.04;62.58;95662.06;5054378;28;20776;-71
2022/05/06 08:30:32;;;;;;;10.90;6.95;;;;;;;20.16;62.83;95660.94;5055113;28;20048;-72
2022/05/06 08:32:59;;;;;;;7.47;4.38;;;;;;;20.31;61.14;95666.19;5043842;28;20064;-72
2022/05/06 08:35:26;;;;;;;5.25;4.00;;;;;;;20.30;60.58;95677.03;5057367;28;20329;-71
2022/05/06 08:37:53;;;;;;;5.40;4.30;;;;;;;20.49;60.11;95672.72;5052430;28;20048;-72
2022/05/06 08:40:26;;;;;;;5.07;3.92;;;;;;;20.58;58.46;95672.91;5057350;28;20047;-72
2022/05/06 08:42:52;;;;;;;6.60;4.60;;;;;;;20.41;59.08;95663.47;5058618;28;20051;-72
2022/05/06 08:51:02;;;;;;;8.50;4.68;;;;;;;21.03;57.37;95654.38;5057235;28;20593;-70
2022/05/06 08:53:32;;;;;;;5.05;3.90;;;;;;;21.11;57.71;95667.03;5045313;28;20045;-70
2022/05/06 08:56:02;;;;;;;6.03;4.40;;;;;;;21.11;54.22;95659.88;5062780;28;20441;-70
2022/05/06 08:58:34;;;;;;;8.50;4.82;;;;;;;21.29;54.67;95662.91;5055469;28;20044;-70
2022/05/06 09:01:03;;;;;;;5.38;4.30;;;;;;;21.46;53.26;95663.28;5056376;28;20521;-70
2022/05/06 09:03:30;;;;;;;4.40;3.95;;;;;;;21.66;52.73;95656.22;5060438;28;20044;-71
2022/05/06 09:06:01;;;;;;;4.13;3.65;;;;;;;21.65;52.44;95655.44;5062451;28;20072;-70
2022/05/06 09:08:38;;;;;;;5.85;4.60;;;;;;;21.68;52.67;95659.38;5061956;28;20041;-71
2022/05/06 09:11:09;;;;;;;5.85;4.28;;;;;;;21.74;53.07;95663.56;5052502;28;20047;-70
2022/05/06 09:13:49;;;;;;;7.32;4.55;;;;;;;21.77;51.39;95652.41;5072741;28;20437;-70
2022/05/06 09:19:20;;;;;;;5.32;4.40;;;;;;;22.12;49.80;95651.19;5061238;28;20047;-71
2022/05/06 09:21:59;;;;;;;10.67;6.93;;;;;;;22.32;49.49;95647.50;5057540;28;20041;-71
2022/05/06 09:24:29;;;;;;;7.95;4.38;;;;;;;22.33;48.51;95649.09;5035848;28;20041;-71
2022/05/06 09:27:05;;;;;;;12.07;5.78;;;;;;;22.40;46.88;95632.03;5054624;28;20425;-70
2022/05/06 09:29:43;;;;;;;13.15;7.28;;;;;;;22.59;48.73;95640.78;5065494;28;20045;-70
2022/05/06 09:32:14;;;;;;;9.32;5.22;;;;;;;22.47;45.21;95643.06;5055553;28;20044;-71
2022/05/06 09:34:41;;;;;;;6.18;4.32;;;;;;;22.59;45.59;95646.09;5052323;28;20041;-71
2022/05/06 09:37:09;;;;;;;5.00;3.67;;;;;;;22.86;45.01;95636.69;5072814;28;20075;-70
2022/05/06 09:39:39;;;;;;;4.03;3.63;;;;;;;22.97;42.79;95645.28;5065091;28;20053;-70
2022/05/06 09:42:07;;;;;;;7.15;3.75;;;;;;;22.94;43.20;95636.03;5070735;28;20045;-71
2022/05/06 09:44:34;;;;;;;7.82;5.38;;;;;;;23.04;43.23;95646.50;5056108;28;20047;-71
2022/05/06 09:47:11;;;;;;;5.72;4.07;;;;;;;23.14;41.46;95644.75;5066445;28;20142;-70
2022/05/06 09:49:42;;;;;;;3.50;3.20;;;;;;;23.07;42.16;95629.22;5058965;28;20036;-71
2022/05/06 09:52:12;;;;;;;4.40;3.80;;;;;;;23.39;42.56;95636.38;5062629;28;20098;-71
2022/05/06 09:54:44;;;;;;;5.95;3.58;;;;;;;23.64;42.13;95634.31;5060690;28;20041;-71
2022/05/06 09:57:16;;;;;;;4.97;3.92;;;;;;;23.50;41.46;95630.88;5059049;28;20071;-71
2022/05/06 09:59:43;;;;;;;4.03;3.63;;;;;;;23.64;41.97;95632.47;5078070;28;20119;-72
2022/05/06 10:02:10;;;;;;;5.45;3.80;;;;;;;23.91;39.58;95640.78;5055939;28;20127;-72
2022/05/06 10:04:38;;;;;;;7.55;3.72;;;;;;;24.09;40.51;95637.22;5060902;28;20575;-72
2022/05/06 10:07:13;;;;;;;5.38;3.60;;;;;;;24.28;38.83;95638.97;5074145;28;20078;-72
2022/05/06 10:10:05;;;;;;;4.68;3.72;;;;;;;24.12;38.44;95625.97;5065606;28;20064;-71
2022/05/06 10:12:42;;;;;;;4.18;3.70;;;;;;;24.14;38.17;95634.44;5062482;28;20120;-71
2022/05/06 10:15:13;;;;;;;4.78;3.95;;;;;;;24.26;38.32;95625.19;5059498;28;20060;-71
2022/05/06 10:17:53;;;;;;;3.50;3.10;;;;;;;24.24;35.84;95625.47;5071774;28;20040;-72
2022/05/06 10:20:38;;;;;;;3.50;2.75;;;;;;;24.29;34.82;95616.59;5044669;28;20064;-70
2022/05/06 10:23:11;;;;;;;3.55;2.83;;;;;;;24.57;35.57;95620.78;5059252;28;20056;-71
2022/05/06 10:25:42;;;;;;;4.93;3.83;;;;;;;24.63;36.34;95628.66;5050842;28;20055;-72
2022/05/06 10:34:19;;;;;;;4.20;3.20;;;;;;;24.94;34.19;95612.78;5076055;28;20044;-72
2022/05/06 10:36:53;;;;;;;5.47;3.20;;;;;;;24.97;35.00;95623.63;5066408;28;20048;-73
2022/05/06 10:39:26;;;;;;;5.18;2.50;;;;;;;25.12;32.71;95619.78;5067210;28;20135;-72
2022/05/06 10:42:09;;;;;;;4.85;2.85;;;;;;;25.10;32.28;95626.50;5063669;28;20048;-72
2022/05/06 10:44:39;;;;;;;3.08;2.33;;;;;;;25.23;32.11;95620.31;5059360;28;20086;-73
2022/05/06 10:47:41;;;;;;;7.65;3.03;;;;;;;25.44;32.16;95609.16;5058656;28;20627;-72
2022/05/06 10:50:16;;;;;;;6.00;3.22;;;;;;;25.66;31.74;95609.09;5049785;28;20044;-72
2022/05/06 10:52:44;;;;;;;5.45;2.90;;;;;;;25.82;30.68;95598.00;5064593;28;20040;-72
2022/05/06 10:55:13;;;;;;;4.25;3.28;;;;;;;25.91;30.47;95612.13;5061928;28;20039;-72
2022/05/06 10:57:53;;;;;;;10.23;2.20;;;;;;;25.78;28.52;95613.06;5051951;28;20251;-73
2022/05/06 11:00:22;;;;;;;2.95;2.00;;;;;;;25.59;28.69;95606.09;5049888;28;20041;-73
2022/05/06 11:02:50;;;;;;;3.97;2.65;;;;;;;25.55;28.81;95602.44;5071712;28;20056;-72
2022/05/06 11:05:20;;;;;;;7.07;2.72;;;;;;;25.15;30.12;95608.50;5059643;28;20407;-71
2022/05/06 11:07:49;;;;;;;2.47;1.80;;;;;;;25.37;30.09;95594.38;5057956;28;20036;-72
2022/05/06 11:10:21;;;;;;;1.88;1.60;;;;;;;25.74;29.30;95592.31;5055385;28;20037;-71
2022/05/06 11:12:51;;;;;;;3.28;2.10;;;;;;;25.73;29.88;95593.44;5048739;28;20087;-72
2022/05/06 11:15:25;;;;;;;2.72;1.90;;;;;;;25.48;28.19;95588.75;5057191;28;20045;-73
2022/05/06 11:17:55;;;;;;;3.55;1.60;;;;;;;25.55;28.26;95589.09;5048701;28;20041;-72
2022/05/06 11:20:31;;;;;;;2.63;2.20;;;;;;;25.81;27.19;95591.09;5067109;28;20046;-72
2022/05/06 11:23:04;;;;;;;3.10;1.83;;;;;;;26.00;26.95;95591.66;5061744;28;20040;-72
2022/05/06 11:25:44;;;;;;;3.22;1.88;;;;;;;26.07;26.85;95589.31;5071460;28;20040;-72
2022/05/06 11:28:18;;;;;;;3.35;2.17;;;;;;;26.16;27.85;95580.50;5067307;28;20045;-71
2022/05/06 11:30:46;;;;;;;3.05;2.03;;;;;;;25.96;26.63;95582.69;5066241;28;20577;-72
2022/05/06 11:33:25;;;;;;;5.32;2.75;;;;;;;25.86;27.01;95582.97;5061614;28;20041;-73
2022/05/06 11:36:03;;;;;;;3.72;2.17;;;;;;;25.83;27.74;95579.00;5063405;28;20048;-73
2022/05/06 11:38:38;;;;;;;7.60;5.03;;;;;;;25.63;27.67;95575.03;5065491;28;20509;-73
2022/05/06 11:41:16;;;;;;;3.42;3.05;;;;;;;25.81;28.08;95575.09;5058393;28;20056;-73
2022/05/06 11:43:45;;;;;;;2.65;2.10;;;;;;;25.65;27.82;95583.50;5065461;28;20044;-71
2022/05/06 11:49:06;;;;;;;4.07;1.80;;;;;;;25.92;27.23;95569.13;5071441;28;20124;-72
2022/05/06 11:51:42;;;;;;;641.65;291.05;;;;;;;26.16;25.82;95569.84;5065888;28;20045;-72
2022/05/06 11:54:10;;;;;;;203.90;80.25;;;;;;;26.23;26.26;95564.81;5056669;28;20874;-72
2022/05/06 11:56:39;;;;;;;918.38;406.58;;;;;;;26.18;26.11;95572.97;5066584;28;20097;-73
2022/05/06 11:59:09;;;;;;;186.70;77.00;;;;;;;26.24;26.16;95566.41;5064275;28;20032;-71
2022/05/06 12:01:38;;;;;;;386.73;164.35;;;;;;;26.15;25.13;95568.28;5057468;28;20053;-71
2022/05/06 12:04:08;;;;;;;1006.55;434.48;;;;;;;26.27;26.69;95549.75;5073810;28;20530;-72
2022/05/06 12:06:38;;;;;;;90.15;41.85;;;;;;;26.48;27.62;95561.38;5074489;28;20047;-73
2022/05/06 12:09:17;;;;;;;3.40;2.58;;;;;;;26.51;25.46;95550.06;5054557;28;20195;-70
2022/05/06 12:11:45;;;;;;;2.45;1.63;;;;;;;26.63;25.94;95556.69;5071799;28;20044;-73
2022/05/06 12:14:17;;;;;;;2.08;1.63;;;;;;;27.01;26.68;95550.63;5054303;28;20549;-73
2022/05/06 12:17:02;;;;;;;4.07;2.15;;;;;;;27.26;25.54;95547.16;5055019;28;20055;-73
2022/05/06 12:19:44;;;;;;;2.60;1.77;;;;;;;27.57;24.55;95546.06;5076885;28;20557;-72
2022/05/06 12:22:13;;;;;;;3.63;2.28;;;;;;;27.57;23.90;95543.41;5058279;28;20052;-72
2022/05/06 12:24:43;;;;;;;4.25;1.75;;;;;;;27.24;24.29;95532.47;5059265;28;20076;-71